Time;durP1;ratioP1;P1;durP2;ratioP2;P2;SDS_P1;SDS_P2;PMS_P1;PMS_P2;Temp;Humidity;BMP_temperature;BMP_pressure;BME280_temperature;BME280_humidity;BME280_pressure;Samples;Min_cycle;Max_cycle;Signal;HPM_P1;HPM_P2
2023/04/15 00:02:49;;;;;;;2.58;1.40;;;13.70;63.10;;;;;;6294269;28;20027;-68
2023/04/15 00:05:50;;;;;;;1.88;1.38;;;13.60;63.20;;;;;;6292259;28;20383;-67
2023/04/15 00:08:51;;;;;;;2.17;1.55;;;13.60;63.30;;;;;;6275262;28;20040;-67
2023/04/15 00:11:52;;;;;;;4.72;2.13;;;13.60;63.40;;;;;;6280843;28;20032;-67
2023/04/15 00:14:54;;;;;;;3.15;1.40;;;13.50;63.40;;;;;;6292650;28;20035;-66
2023/04/15 00:17:55;;;;;;;3.58;1.67;;;13.50;63.60;;;;;;6292251;28;20025;-67
2023/04/15 00:20:56;;;;;;;2.17;1.42;;;13.50;63.70;;;;;;6293841;28;20032;-67
2023/04/15 00:23:57;;;;;;;1.58;1.38;;;13.60;63.70;;;;;;6292240;28;20458;-66
2023/04/15 00:26:58;;;;;;;7.28;1.85;;;13.60;63.70;;;;;;6293536;28;20071;-69
2023/04/15 00:30:03;;;;;;;2.90;1.77;;;13.60;63.80;;;;;;6292235;28;20374;-67
2023/04/15 00:33:04;;;;;;;2.70;1.70;;;13.60;63.80;;;;;;6292324;28;20510;-67
2023/04/15 00:36:06;;;;;;;4.20;2.00;;;13.70;63.90;;;;;;6293814;28;20031;-67
2023/04/15 00:39:07;;;;;;;3.03;1.77;;;13.70;63.80;;;;;;6291797;28;20024;-68
2023/04/15 00:42:08;;;;;;;3.67;1.75;;;13.60;63.80;;;;;;6293380;28;20064;-68
2023/04/15 00:45:09;;;;;;;2.35;1.58;;;13.70;63.90;;;;;;6291683;28;20052;-66
2023/04/15 00:48:10;;;;;;;4.43;1.83;;;13.60;63.80;;;;;;6292804;28;20032;-68
2023/04/15 00:51:12;;;;;;;1.90;1.58;;;13.70;63.90;;;;;;6293276;28;20127;-68
2023/04/15 00:54:13;;;;;;;1.77;1.15;;;13.60;64.00;;;;;;6290585;28;20059;-68
2023/04/15 00:57:15;;;;;;;5.30;1.60;;;13.60;64.00;;;;;;6277082;28;20040;-67
2023/04/15 01:00:19;;;;;;;4.85;1.45;;;13.50;64.10;;;;;;6266635;28;20036;-68
2023/04/15 01:03:20;;;;;;;3.38;2.15;;;13.50;64.40;;;;;;6266507;28;20504;-67
2023/04/15 01:06:21;;;;;;;3.10;1.70;;;13.50;64.70;;;;;;6266504;28;20056;-67
2023/04/15 01:09:22;;;;;;;3.33;1.95;;;13.50;64.80;;;;;;6267817;28;20037;-67
2023/04/15 01:12:26;;;;;;;1.52;1.20;;;13.50;64.80;;;;;;6284114;28;20475;-67
2023/04/15 01:15:27;;;;;;;1.90;1.40;;;13.50;64.70;;;;;;6292538;28;20394;-68
2023/04/15 01:18:29;;;;;;;2.00;1.48;;;13.50;64.70;;;;;;6290948;28;20025;-67
2023/04/15 01:21:30;;;;;;;3.88;1.77;;;13.60;64.80;;;;;;6292603;28;20036;-67
2023/04/15 01:24:34;;;;;;;2.63;1.77;;;13.60;64.70;;;;;;6290820;28;20081;-65
2023/04/15 01:27:41;;;;;;;5.47;1.70;;;13.70;64.60;;;;;;6284244;28;20032;-67
2023/04/15 01:30:42;;;;;;;3.42;1.33;;;13.70;64.60;;;;;;6267503;28;20028;-67
2023/04/15 01:33:43;;;;;;;2.10;1.58;;;13.70;64.40;;;;;;6249376;28;20638;-68
2023/04/15 01:36:44;;;;;;;5.22;2.17;;;13.70;64.30;;;;;;6265326;28;20025;-67
2023/04/15 01:39:45;;;;;;;3.03;1.83;;;13.70;64.30;;;;;;6266566;28;20434;-67
2023/04/15 01:42:46;;;;;;;2.63;1.58;;;13.80;64.20;;;;;;6267041;28;20100;-67
2023/04/15 01:45:47;;;;;;;2.85;1.90;;;13.80;64.10;;;;;;6288206;28;20039;-68
2023/04/15 01:48:47;;;;;;;3.65;1.75;;;13.80;64.00;;;;;;6316604;28;20056;-67
2023/04/15 01:51:49;;;;;;;2.67;1.90;;;13.80;64.10;;;;;;6313529;28;20180;-67
2023/04/15 01:54:50;;;;;;;2.70;1.85;;;13.70;64.10;;;;;;6289971;28;20215;-68
2023/04/15 01:57:52;;;;;;;3.05;1.92;;;13.70;64.30;;;;;;6289298;28;20032;-67
2023/04/15 02:00:55;;;;;;;8.20;2.15;;;13.60;64.40;;;;;;6289807;28;20090;-68
2023/04/15 02:03:55;;;;;;;2.65;1.80;;;13.50;64.50;;;;;;6273380;28;20130;-67
2023/04/15 02:06:56;;;;;;;2.10;1.63;;;13.50;64.80;;;;;;6291287;28;20039;-67
2023/04/15 02:09:58;;;;;;;4.05;1.83;;;13.50;64.90;;;;;;6289638;28;20036;-68
2023/04/15 02:12:58;;;;;;;7.05;2.42;;;13.50;65.00;;;;;;6289835;28;20032;-68
2023/04/15 02:16:02;;;;;;;3.25;2.20;;;13.50;65.00;;;;;;6289622;28;20382;-68
2023/04/15 02:19:03;;;;;;;2.22;1.70;;;13.50;65.10;;;;;;6289418;28;20133;-67
2023/04/15 02:22:06;;;;;;;5.55;2.45;;;13.40;65.20;;;;;;6289154;28;20029;-67
2023/04/15 02:25:08;;;;;;;1.88;1.50;;;13.40;65.20;;;;;;6291001;28;20155;-68
2023/04/15 02:28:09;;;;;;;1.50;1.38;;;13.40;65.30;;;;;;6289060;28;20028;-67
2023/04/15 02:31:10;;;;;;;2.85;1.45;;;13.40;65.50;;;;;;6291354;28;20055;-67
2023/04/15 02:34:13;;;;;;;3.42;1.77;;;13.40;65.50;;;;;;6291631;28;20032;-67
2023/04/15 02:37:19;;;;;;;3.47;1.58;;;13.40;65.60;;;;;;6289037;28;20031;-67
2023/04/15 02:40:20;;;;;;;2.88;1.40;;;13.40;65.80;;;;;;6290806;28;20489;-67
2023/04/15 02:43:21;;;;;;;1.95;1.20;;;13.30;65.70;;;;;;6289352;28;20069;-67
2023/04/15 02:46:23;;;;;;;6.70;1.60;;;13.30;65.80;;;;;;6266806;28;20112;-66
2023/04/15 02:49:25;;;;;;;2.92;1.15;;;13.40;65.80;;;;;;6276765;28;20029;-69
2023/04/15 02:52:26;;;;;;;2.55;1.40;;;13.40;65.70;;;;;;6289037;28;20082;-67
2023/04/15 02:55:27;;;;;;;3.55;1.35;;;13.40;65.50;;;;;;6288943;28;20016;-67
2023/04/15 02:58:28;;;;;;;1.85;0.95;;;13.40;65.50;;;;;;6289135;28;20029;-67
2023/04/15 03:01:29;;;;;;;2.08;0.90;;;13.40;65.50;;;;;;6269248;28;20135;-68
2023/04/15 03:04:30;;;;;;;1.67;1.05;;;13.40;65.50;;;;;;6264064;28;20381;-67
2023/04/15 03:07:31;;;;;;;1.20;0.73;;;13.40;65.40;;;;;;6265152;28;20229;-67
2023/04/15 03:10:33;;;;;;;3.38;1.17;;;13.40;65.30;;;;;;6247551;28;20067;-65
2023/04/15 03:13:35;;;;;;;1.05;0.90;;;13.40;65.20;;;;;;6263754;28;20059;-67
2023/04/15 03:16:44;;;;;;;;;;;13.40;65.10;;;;;;6266315;28;20029;-67
2023/04/15 03:19:49;;;;;;;1.17;0.80;;;13.50;65.10;;;;;;6252718;28;20373;-67
2023/04/15 03:22:51;;;;;;;1.45;0.90;;;13.40;65.00;;;;;;6268993;28;20025;-66
2023/04/15 03:25:56;;;;;;;1.92;0.70;;;13.40;65.20;;;;;;6252636;28;20120;-66
2023/04/15 03:28:58;;;;;;;1.85;0.65;;;13.40;65.30;;;;;;6288253;28;20192;-68
2023/04/15 03:31:58;;;;;;;1.10;0.88;;;13.40;65.30;;;;;;6293792;28;20174;-68
2023/04/15 03:35:00;;;;;;;1.40;0.85;;;13.30;65.40;;;;;;6293880;28;20044;-67
2023/04/15 03:38:01;;;;;;;1.70;0.80;;;13.40;65.50;;;;;;6294532;28;20061;-67
2023/04/15 03:41:01;;;;;;;0.70;0.70;;;13.30;65.70;;;;;;6294751;28;20028;-68
2023/04/15 03:44:02;;;;;;;1.17;0.75;;;13.30;65.80;;;;;;6293075;28;20115;-67
2023/04/15 03:47:03;;;;;;;1.50;0.93;;;13.30;65.80;;;;;;6292862;28;20461;-67
2023/04/15 03:50:05;;;;;;;1.55;1.08;;;13.20;65.70;;;;;;6294574;28;20059;-67
2023/04/15 03:53:05;;;;;;;1.30;1.13;;;13.20;65.80;;;;;;6294564;28;20094;-69
2023/04/15 03:56:06;;;;;;;1.20;1.05;;;13.30;65.80;;;;;;6294102;28;20120;-67
2023/04/15 03:59:07;;;;;;;1.15;1.00;;;13.30;65.70;;;;;;6292266;28;20031;-68
2023/04/15 04:02:08;;;;;;;1.80;1.30;;;13.40;65.70;;;;;;6269877;28;20338;-66
2023/04/15 04:05:09;;;;;;;2.17;1.13;;;13.40;65.60;;;;;;6269670;28;20770;-66
2023/04/15 04:08:12;;;;;;;1.60;1.10;;;13.50;65.50;;;;;;6269258;28;20116;-66
2023/04/15 04:11:13;;;;;;;2.10;1.00;;;13.50;65.40;;;;;;6275955;28;20039;-67
2023/04/15 04:14:14;;;;;;;3.35;1.20;;;13.50;66.10;;;;;;6294302;28;20037;-67
2023/04/15 04:17:15;;;;;;;1.23;0.93;;;13.60;65.20;;;;;;6294241;28;20040;-67
2023/04/15 04:20:16;;;;;;;2.50;1.10;;;13.60;65.00;;;;;;6293827;28;20147;-67
2023/04/15 04:23:16;;;;;;;0.88;0.85;;;13.70;64.80;;;;;;6293759;28;20314;-66
2023/04/15 04:26:18;;;;;;;1.48;1.00;;;13.70;64.60;;;;;;6293601;28;20021;-69
2023/04/15 04:29:19;;;;;;;2.58;1.30;;;13.60;64.50;;;;;;6292182;28;20034;-67
2023/04/15 04:32:20;;;;;;;3.47;1.10;;;13.60;64.60;;;;;;6291796;28;20044;-65
2023/04/15 04:35:21;;;;;;;2.20;1.02;;;13.60;64.60;;;;;;6293205;28;20078;-66
2023/04/15 04:38:22;;;;;;;1.48;1.23;;;13.60;64.90;;;;;;6292814;28;20040;-67
2023/04/15 04:41:23;;;;;;;1.23;0.93;;;13.50;65.10;;;;;;6291776;28;20480;-66
2023/04/15 04:44:24;;;;;;;2.03;0.98;;;13.50;65.40;;;;;;6287491;28;20106;-67
2023/04/15 04:47:25;;;;;;;2.20;1.05;;;13.40;65.50;;;;;;6266563;28;20041;-68
2023/04/15 04:50:26;;;;;;;1.33;0.90;;;13.40;65.60;;;;;;6268138;28;20096;-67
2023/04/15 04:53:27;;;;;;;1.15;0.90;;;13.40;65.70;;;;;;6268446;28;20021;-66
2023/04/15 04:56:27;;;;;;;2.15;1.00;;;13.50;65.70;;;;;;6275346;28;20061;-67
2023/04/15 04:59:28;;;;;;;1.92;1.00;;;13.50;65.50;;;;;;6292629;28;20031;-68
2023/04/15 05:02:29;;;;;;;4.95;1.30;;;13.50;65.50;;;;;;6292627;28;20020;-66
2023/04/15 05:05:30;;;;;;;2.08;1.20;;;13.40;65.50;;;;;;6292605;28;20048;-69
2023/04/15 05:08:31;;;;;;;3.15;1.33;;;13.40;65.60;;;;;;6292144;28;20028;-67
2023/04/15 05:11:32;;;;;;;3.45;1.20;;;13.40;65.80;;;;;;6292087;28;20021;-66
2023/04/15 05:14:33;;;;;;;2.00;1.30;;;13.30;65.90;;;;;;6292001;28;20028;-66
2023/04/15 05:17:34;;;;;;;2.65;1.40;;;13.30;66.00;;;;;;6291822;28;20451;-67
2023/04/15 05:20:35;;;;;;;3.38;1.30;;;13.30;66.20;;;;;;6292185;28;20321;-67
2023/04/15 05:23:36;;;;;;;1.58;1.25;;;13.20;66.40;;;;;;6292190;28;20354;-68
2023/04/15 05:26:37;;;;;;;3.38;1.52;;;13.20;66.60;;;;;;6292202;28;20021;-68
2023/04/15 05:29:38;;;;;;;7.30;1.50;;;13.10;66.70;;;;;;6268829;28;20029;-67
2023/04/15 05:32:39;;;;;;;2.55;1.23;;;13.10;66.80;;;;;;6292003;28;20345;-67
2023/04/15 05:35:40;;;;;;;3.10;1.90;;;13.10;66.90;;;;;;6292091;28;20064;-66
2023/04/15 05:38:41;;;;;;;1.92;1.25;;;13.10;66.70;;;;;;6291163;28;20035;-68
2023/04/15 05:41:42;;;;;;;3.40;1.52;;;13.10;66.80;;;;;;6292067;28;20133;-67
2023/04/15 05:44:42;;;;;;;2.80;1.63;;;13.10;66.90;;;;;;6291356;28;20066;-67
2023/04/15 05:47:43;;;;;;;2.88;1.70;;;13.00;67.00;;;;;;6290256;28;20029;-67
2023/04/15 05:50:44;;;;;;;4.60;1.67;;;13.00;67.10;;;;;;6289973;28;20376;-67
2023/04/15 05:53:45;;;;;;;6.10;1.92;;;13.00;68.00;;;;;;6273465;28;20055;-66
2023/04/15 05:56:46;;;;;;;3.85;2.15;;;13.00;67.40;;;;;;6266081;28;20041;-68
2023/04/15 05:59:47;;;;;;;3.20;2.08;;;13.00;67.40;;;;;;6264592;28;20024;-66
2023/04/15 06:02:49;;;;;;;2.25;1.63;;;13.00;67.40;;;;;;6264814;28;20161;-66
2023/04/15 06:05:49;;;;;;;4.47;1.60;;;13.00;67.40;;;;;;6265028;28;20033;-67
2023/04/15 06:08:51;;;;;;;6.65;1.92;;;13.10;67.50;;;;;;6264515;28;20083;-67
2023/04/15 06:11:52;;;;;;;3.97;1.60;;;13.10;67.50;;;;;;6279585;28;20036;-66
2023/04/15 06:14:53;;;;;;;2.65;1.20;;;13.10;67.50;;;;;;6289755;28;20028;-68
2023/04/15 06:17:53;;;;;;;1.17;1.08;;;13.20;67.60;;;;;;6291049;28;20078;-68
2023/04/15 06:20:56;;;;;;;3.10;1.48;;;13.20;67.60;;;;;;6291258;28;20091;-68
2023/04/15 06:23:58;;;;;;;2.03;1.30;;;13.20;67.60;;;;;;6291026;28;20024;-69
2023/04/15 06:27:01;;;;;;;3.33;1.42;;;13.20;67.60;;;;;;6285840;28;20083;-66
2023/04/15 06:30:02;;;;;;;5.82;1.48;;;13.20;67.50;;;;;;6265992;28;20462;-68
2023/04/15 06:33:05;;;;;;;3.92;1.10;;;13.30;68.20;;;;;;6267231;28;20037;-66
2023/04/15 06:36:06;;;;;;;3.42;1.13;;;13.30;67.30;;;;;;6272550;28;20032;-67
2023/04/15 06:39:07;;;;;;;3.92;1.15;;;13.20;67.10;;;;;;6272279;28;20020;-69
2023/04/15 06:42:09;;;;;;;2.63;1.23;;;13.30;67.10;;;;;;6289499;28;20406;-68
2023/04/15 06:45:11;;;;;;;1.13;0.93;;;13.30;67.00;;;;;;6272506;28;20111;-68
2023/04/15 06:48:12;;;;;;;1.45;1.13;;;13.30;67.00;;;;;;6285876;28;20037;-67
2023/04/15 06:51:13;;;;;;;3.60;1.00;;;13.30;66.80;;;;;;6265132;28;20043;-68
2023/04/15 06:54:14;;;;;;;2.80;1.50;;;13.30;66.70;;;;;;6265937;28;20029;-66
2023/04/15 06:57:15;;;;;;;1.80;1.08;;;13.30;66.60;;;;;;6265381;28;20108;-68
2023/04/15 07:00:16;;;;;;;3.28;1.40;;;13.30;66.60;;;;;;6264271;28;20105;-68
2023/04/15 07:03:17;;;;;;;1.13;1.02;;;13.30;66.60;;;;;;6266111;28;20715;-66
2023/04/15 07:06:18;;;;;;;1.75;0.93;;;13.30;66.80;;;;;;6265897;28;20464;-67
2023/04/15 07:09:19;;;;;;;5.53;1.17;;;13.30;66.90;;;;;;6265580;28;20454;-68
2023/04/15 07:12:20;;;;;;;2.20;1.13;;;13.30;66.90;;;;;;6281535;28;20031;-67
2023/04/15 07:15:22;;;;;;;2.47;1.40;;;13.20;67.00;;;;;;6290820;28;20412;-67
2023/04/15 07:18:23;;;;;;;1.67;1.13;;;13.20;67.00;;;;;;6290522;28;20029;-68
2023/04/15 07:21:24;;;;;;;1.85;1.10;;;13.10;67.00;;;;;;6290304;28;20107;-66
2023/04/15 07:24:25;;;;;;;1.33;0.80;;;13.20;68.00;;;;;;6290253;28;20025;-68
2023/04/15 07:27:26;;;;;;;2.53;1.05;;;13.10;67.40;;;;;;6272057;28;20113;-67
2023/04/15 07:30:28;;;;;;;2.13;1.20;;;13.10;67.50;;;;;;6289464;28;20519;-67
2023/04/15 07:33:29;;;;;;;4.85;1.73;;;13.10;67.70;;;;;;6290578;28;20029;-68
2023/04/15 07:36:30;;;;;;;1.65;1.35;;;13.20;67.80;;;;;;6290606;28;20474;-67
2023/04/15 07:39:34;;;;;;;2.47;1.60;;;13.30;67.80;;;;;;6290409;28;20024;-66
2023/04/15 07:42:35;;;;;;;2.22;1.65;;;13.50;67.80;;;;;;6290266;28;20168;-67
2023/04/15 07:45:36;;;;;;;5.57;2.40;;;13.70;67.40;;;;;;6276037;28;20037;-68
2023/04/15 07:48:37;;;;;;;5.18;1.58;;;13.90;66.90;;;;;;6263720;28;20056;-68
2023/04/15 07:51:38;;;;;;;2.78;1.20;;;14.00;66.20;;;;;;6264958;28;20784;-67
2023/04/15 07:54:39;;;;;;;1.10;0.40;;;13.90;66.30;;;;;;6263315;28;20037;-70
2023/04/15 07:57:39;;;;;;;0.20;0.20;;;13.80;66.40;;;;;;6263610;28;20056;-69
2023/04/15 08:00:40;;;;;;;1.30;0.20;;;13.70;63.90;;;;;;6264708;28;20057;-68
2023/04/15 08:03:41;;;;;;;0.90;0.30;;;13.50;62.70;;;;;;6268023;28;20127;-68
2023/04/15 08:06:42;;;;;;;0.95;0.20;;;13.40;62.50;;;;;;6267669;28;20457;-69
2023/04/15 08:09:43;;;;;;;0.20;0.08;;;13.20;61.20;;;;;;6269322;28;20028;-68
2023/04/15 08:12:47;;;;;;;0.32;0.30;;;13.10;60.60;;;;;;6289874;28;20059;-69
2023/04/15 08:16:12;;;;;;;0.77;0.55;;;13.10;60.20;;;;;;6294236;28;20078;-69
2023/04/15 08:19:13;;;;;;;5.10;0.68;;;13.00;60.50;;;;;;6293641;28;20029;-69
2023/04/15 08:22:14;;;;;;;4.15;0.52;;;13.10;60.30;;;;;;6276161;28;20074;-70
2023/04/15 08:25:15;;;;;;;2.70;0.90;;;13.00;60.10;;;;;;6292513;28;20094;-71
2023/04/15 08:28:16;;;;;;;2.05;0.60;;;13.20;60.00;;;;;;6291754;28;20044;-69
2023/04/15 08:31:17;;;;;;;1.17;0.30;;;13.30;59.70;;;;;;6293607;28;20029;-69
2023/04/15 08:34:18;;;;;;;11.75;1.35;;;13.50;59.10;;;;;;6291954;28;20109;-71
2023/04/15 08:37:20;;;;;;;1.55;0.32;;;13.60;58.60;;;;;;6293650;28;20020;-69
2023/04/15 08:40:25;;;;;;;1.05;0.73;;;13.80;58.40;;;;;;6293842;28;20035;-69
2023/04/15 08:43:34;;;;;;;1.90;0.50;;;13.90;58.00;;;;;;6267789;28;20124;-68
2023/04/15 08:46:35;;;;;;;2.28;1.00;;;14.10;57.00;;;;;;6291797;28;20021;-68
2023/04/15 08:49:40;;;;;;;0.73;0.22;;;14.20;56.20;;;;;;6292772;28;20318;-68
2023/04/15 08:52:41;;;;;;;0.95;0.30;;;14.40;56.10;;;;;;6293260;28;20029;-68
2023/04/15 08:55:44;;;;;;;0.77;0.57;;;14.70;55.90;;;;;;6293518;28;20020;-70
2023/04/15 08:58:46;;;;;;;0.65;0.43;;;14.90;54.80;;;;;;6275395;28;20032;-69
2023/04/15 09:01:50;;;;;;;2.88;0.45;;;14.90;54.10;;;;;;6293041;28;20409;-69
2023/04/15 09:04:50;;;;;;;0.20;0.20;;;15.00;53.70;;;;;;6293132;28;20148;-70
2023/04/15 09:07:51;;;;;;;0.30;0.30;;;15.00;52.50;;;;;;6293112;28;20156;-69
2023/04/15 09:10:53;;;;;;;1.63;0.60;;;15.00;52.60;;;;;;6292978;28;20398;-68
2023/04/15 09:13:55;;;;;;;0.73;0.40;;;15.00;52.00;;;;;;6291947;28;20040;-69
2023/04/15 09:17:09;;;;;;;2.58;0.45;;;15.20;52.30;;;;;;6274066;28;20108;-67
2023/04/15 09:20:14;;;;;;;1.45;0.60;;;15.50;52.40;;;;;;6292589;28;20484;-68
2023/04/15 09:23:16;;;;;;;0.35;0.30;;;15.60;51.60;;;;;;6290938;28;20028;-67
2023/04/15 09:26:17;;;;;;;1.60;0.65;;;15.70;51.20;;;;;;6291971;28;20024;-67
2023/04/15 09:29:18;;;;;;;3.70;0.45;;;15.80;50.70;;;;;;6292063;28;20040;-66
2023/04/15 09:32:23;;;;;;;2.53;0.60;;;15.80;50.40;;;;;;6292057;28;20021;-68
2023/04/15 09:35:26;;;;;;;1.52;0.50;;;15.90;50.10;;;;;;6292131;28;20142;-68
2023/04/15 09:38:28;;;;;;;1.75;0.70;;;16.00;49.70;;;;;;6287937;28;20070;-69
2023/04/15 09:41:28;;;;;;;0.47;0.40;;;16.00;49.50;;;;;;6291803;28;20024;-69
2023/04/15 09:44:29;;;;;;;0.40;0.40;;;16.30;49.30;;;;;;6290612;28;20416;-71
2023/04/15 09:47:31;;;;;;;0.40;0.40;;;16.40;49.00;;;;;;6291683;28;20484;-71
2023/04/15 09:50:40;;;;;;;0.35;0.30;;;16.50;48.70;;;;;;6291637;28;20375;-72
2023/04/15 09:53:41;;;;;;;1.83;0.50;;;16.50;48.50;;;;;;6289959;28;20044;-69
2023/04/15 09:56:41;;;;;;;3.03;0.63;;;16.50;47.90;;;;;;6291244;28;20025;-67
2023/04/15 09:59:42;;;;;;;1.90;0.40;;;16.30;48.70;;;;;;6290862;28;20123;-70
2023/04/15 10:02:45;;;;;;;1.98;0.40;;;15.80;50.00;;;;;;6291083;28;20047;-69
2023/04/15 10:05:51;;;;;;;1.23;0.20;;;15.10;51.60;;;;;;6291168;28;20044;-68
2023/04/15 10:08:53;;;;;;;0.10;0.10;;;14.30;53.40;;;;;;6291012;28;20321;-69
2023/04/15 10:11:54;;;;;;;0.40;0.30;;;13.80;54.30;;;;;;6290927;28;20657;-68
2023/04/15 10:15:00;;;;;;;2.78;0.20;;;13.40;54.70;;;;;;6290251;28;20120;-69
2023/04/15 10:18:04;;;;;;;0.17;0.10;;;13.10;55.50;;;;;;6290964;28;20024;-69
2023/04/15 10:21:06;;;;;;;0.10;0.10;;;13.00;56.00;;;;;;6289736;28;20323;-69
2023/04/15 10:24:07;;;;;;;0.73;0.20;;;13.00;56.20;;;;;;6290759;28;20052;-68
2023/04/15 10:27:08;;;;;;;0.70;0.60;;;13.00;56.30;;;;;;6288541;28;20381;-66
2023/04/15 10:30:10;;;;;;;0.28;0.25;;;13.10;56.20;;;;;;6290849;28;20118;-69
2023/04/15 10:33:11;;;;;;;0.60;0.20;;;13.10;55.80;;;;;;6288248;28;20029;-67
2023/04/15 10:36:13;;;;;;;0.80;0.30;;;13.30;55.50;;;;;;6265621;28;20040;-67
2023/04/15 10:39:35;;;;;;;0.10;0.10;;;13.40;55.50;;;;;;6282038;28;20033;-68
2023/04/15 10:42:36;;;;;;;0.82;0.45;;;13.50;55.40;;;;;;6289121;28;20325;-67
2023/04/15 10:45:37;;;;;;;1.70;0.43;;;13.60;55.30;;;;;;6290517;28;20028;-68
2023/04/15 10:48:38;;;;;;;1.73;0.50;;;13.80;55.20;;;;;;6290515;28;20036;-70
2023/04/15 10:51:41;;;;;;;0.20;0.20;;;14.00;55.00;;;;;;6288806;28;20425;-68
2023/04/15 10:54:43;;;;;;;3.88;1.15;;;14.20;54.80;;;;;;6290594;28;20334;-69
2023/04/15 10:57:44;;;;;;;2.05;0.60;;;14.40;54.40;;;;;;6288944;28;20354;-67
2023/04/15 11:00:53;;;;;;;4.88;2.22;;;14.40;54.10;;;;;;6290235;28;20377;-68
2023/04/15 11:03:54;;;;;;;3.65;1.55;;;14.60;54.10;;;;;;6288661;28;20104;-66
2023/04/15 11:07:05;;;;;;;0.73;0.50;;;14.70;54.20;;;;;;6290093;28;20033;-68
2023/04/15 11:10:12;;;;;;;0.30;0.30;;;14.90;53.70;;;;;;6288258;28;20124;-68
2023/04/15 11:13:21;;;;;;;0.90;0.63;;;15.10;53.40;;;;;;6290242;28;20040;-68
2023/04/15 11:16:22;;;;;;;3.33;0.63;;;15.50;53.20;;;;;;6289333;28;20254;-68
2023/04/15 11:19:23;;;;;;;2.83;0.40;;;15.90;52.40;;;;;;6289647;28;20400;-68
2023/04/15 11:22:24;;;;;;;0.32;0.28;;;16.10;51.70;;;;;;6289279;28;20105;-67
2023/04/15 11:25:26;;;;;;;0.57;0.57;;;16.20;51.50;;;;;;6289899;28;20040;-68
2023/04/15 11:28:29;;;;;;;2.40;0.60;;;16.30;51.60;;;;;;6287665;28;20457;-67
2023/04/15 11:31:30;;;;;;;3.13;0.40;;;16.40;51.70;;;;;;6268659;28;20048;-68
2023/04/15 11:34:31;;;;;;;3.38;1.02;;;16.30;51.70;;;;;;6263384;28;20466;-70
2023/04/15 11:37:32;;;;;;;0.73;0.30;;;16.30;51.70;;;;;;6270606;28;20090;-69
2023/04/15 11:40:34;;;;;;;0.50;0.38;;;16.20;51.70;;;;;;6294412;28;20040;-67
2023/04/15 11:43:35;;;;;;;3.15;1.00;;;16.10;51.80;;;;;;6294862;28;20119;-68
2023/04/15 11:46:36;;;;;;;2.45;1.13;;;16.00;52.10;;;;;;6294121;28;20077;-70
2023/04/15 11:49:40;;;;;;;0.90;0.60;;;15.90;52.60;;;;;;6275244;28;20119;-68
2023/04/15 11:52:55;;;;;;;3.25;0.30;;;15.70;53.10;;;;;;6294742;28;20449;-69
2023/04/15 11:55:56;;;;;;;2.30;0.30;;;15.20;53.40;;;;;;6294923;28;20039;-71
2023/04/15 11:58:58;;;;;;;2.25;0.20;;;14.60;54.30;;;;;;6292764;28;20372;-69
2023/04/15 12:02:10;;;;;;;4.25;0.57;;;14.00;55.00;;;;;;6294063;28;20417;-69
2023/04/15 12:05:11;;;;;;;0.52;0.38;;;13.50;55.80;;;;;;6294209;28;20091;-67
2023/04/15 12:08:12;;;;;;;0.57;0.20;;;13.10;57.00;;;;;;6294259;28;20647;-71
2023/04/15 12:11:14;;;;;;;0.10;0.10;;;12.70;57.70;;;;;;6294282;28;20033;-68
2023/04/15 12:14:27;;;;;;;0.38;0.13;;;12.40;58.40;;;;;;6292818;28;20036;-70
2023/04/15 12:17:28;;;;;;;0.10;0.10;;;12.20;59.10;;;;;;6293791;28;20542;-69
2023/04/15 12:20:30;;;;;;;0.30;0.10;;;12.10;59.60;;;;;;6294181;28;20024;-67
2023/04/15 12:23:36;;;;;;;0.57;0.40;;;12.00;59.70;;;;;;6293635;28;20027;-69
2023/04/15 12:26:49;;;;;;;0.73;0.20;;;12.00;59.60;;;;;;6283002;28;20029;-67
2023/04/15 12:30:02;;;;;;;0.22;0.20;;;12.00;59.60;;;;;;6268340;28;20021;-68
2023/04/15 12:33:02;;;;;;;1.65;0.80;;;12.00;59.60;;;;;;6272337;28;20033;-69
2023/04/15 12:36:03;;;;;;;0.10;0.10;;;12.00;59.50;;;;;;6271883;28;20032;-67
2023/04/15 12:39:05;;;;;;;0.05;0.05;;;12.00;59.60;;;;;;6285294;28;20012;-69
2023/04/15 12:42:07;;;;;;;0.98;0.20;;;12.20;59.70;;;;;;6293330;28;20449;-68
2023/04/15 12:45:08;;;;;;;0.10;0.10;;;12.30;59.60;;;;;;6280130;28;20055;-69
2023/04/15 12:48:08;;;;;;;0.20;0.20;;;12.50;59.30;;;;;;6266533;28;20036;-68
2023/04/15 12:51:09;;;;;;;0.03;0.03;;;12.70;59.00;;;;;;6267905;28;20191;-68
2023/04/15 12:54:10;;;;;;;0.63;0.47;;;12.90;58.70;;;;;;6271449;28;20120;-68
2023/04/15 12:57:11;;;;;;;1.83;0.68;;;13.10;58.40;;;;;;6271018;28;20051;-68
2023/04/15 13:00:13;;;;;;;3.95;1.70;;;13.20;58.20;;;;;;6274007;28;20025;-68
2023/04/15 13:03:14;;;;;;;1.83;0.75;;;13.40;58.20;;;;;;6292158;28;20020;-68
2023/04/15 13:06:16;;;;;;;0.25;0.25;;;13.50;58.10;;;;;;6292507;28;20052;-68
2023/04/15 13:09:16;;;;;;;0.52;0.47;;;13.80;58.00;;;;;;6290684;28;20024;-69
2023/04/15 13:12:17;;;;;;;0.20;0.20;;;13.60;57.80;;;;;;6292060;28;20771;-69
2023/04/15 13:15:21;;;;;;;0.32;0.30;;;13.60;58.00;;;;;;6292310;28;20423;-68
2023/04/15 13:18:22;;;;;;;0.75;0.50;;;13.70;58.30;;;;;;6290263;28;20055;-68
2023/04/15 13:21:23;;;;;;;0.30;0.30;;;13.70;58.40;;;;;;6290585;28;20203;-68
2023/04/15 13:24:24;;;;;;;5.30;0.40;;;13.70;58.50;;;;;;6268949;28;20162;-70
2023/04/15 13:27:25;;;;;;;0.93;0.60;;;13.60;58.70;;;;;;6273719;28;20376;-72
2023/04/15 13:30:26;;;;;;;0.38;0.30;;;13.40;59.00;;;;;;6281079;28;20029;-69
2023/04/15 13:33:28;;;;;;;0.73;0.50;;;13.30;59.30;;;;;;6265943;28;20434;-68
2023/04/15 13:36:28;;;;;;;1.70;0.28;;;13.20;59.60;;;;;;6267635;28;20078;-69
2023/04/15 13:39:30;;;;;;;0.68;0.43;;;13.10;59.80;;;;;;6267116;28;20434;-69
2023/04/15 13:42:30;;;;;;;7.30;3.38;;;13.10;60.90;;;;;;6265685;28;20021;-68
2023/04/15 13:45:31;;;;;;;0.50;0.50;;;13.00;60.20;;;;;;6266974;28;20052;-68
2023/04/15 13:48:32;;;;;;;2.13;0.30;;;13.00;60.20;;;;;;6266792;28;20091;-70
2023/04/15 13:51:35;;;;;;;0.52;0.20;;;13.00;60.30;;;;;;6267114;28;20013;-69
2023/04/15 13:54:36;;;;;;;3.53;0.70;;;13.10;60.40;;;;;;6267438;28;20145;-67
2023/04/15 13:57:37;;;;;;;0.63;0.30;;;13.00;60.30;;;;;;6283022;28;20108;-68
2023/04/15 14:00:39;;;;;;;2.08;1.10;;;13.00;60.30;;;;;;6291584;28;20074;-69
2023/04/15 14:03:40;;;;;;;1.25;0.55;;;13.00;60.50;;;;;;6290211;28;20029;-68
2023/04/15 14:06:41;;;;;;;0.98;0.35;;;13.00;60.80;;;;;;6291313;28;20039;-70
2023/04/15 14:09:43;;;;;;;0.35;0.35;;;13.00;61.00;;;;;;6291142;28;20044;-69
2023/04/15 14:12:44;;;;;;;0.68;0.40;;;13.00;61.00;;;;;;6289903;28;20552;-68
2023/04/15 14:15:45;;;;;;;0.63;0.38;;;13.00;61.20;;;;;;6290059;28;20028;-69
2023/04/15 14:18:46;;;;;;;1.67;0.70;;;12.90;61.30;;;;;;6291594;28;20021;-69
2023/04/15 14:21:47;;;;;;;1.20;0.38;;;13.00;61.50;;;;;;6291183;28;20448;-68
2023/04/15 14:24:48;;;;;;;2.17;0.50;;;13.10;61.30;;;;;;6289225;28;20065;-68
2023/04/15 14:27:50;;;;;;;0.47;0.43;;;13.20;61.20;;;;;;6289277;28;20417;-67
2023/04/15 14:30:51;;;;;;;2.97;0.70;;;13.30;61.20;;;;;;6290690;28;20028;-69
2023/04/15 14:33:51;;;;;;;0.93;0.40;;;13.20;61.00;;;;;;6291307;28;20575;-67
2023/04/15 14:36:52;;;;;;;0.52;0.45;;;13.10;61.20;;;;;;6291823;28;20119;-70
2023/04/15 14:39:53;;;;;;;1.95;0.20;;;13.00;61.40;;;;;;6289728;28;20017;-67
2023/04/15 14:42:54;;;;;;;0.40;0.17;;;13.00;61.50;;;;;;6291169;28;20055;-70
2023/04/15 14:45:55;;;;;;;1.45;0.70;;;13.00;61.60;;;;;;6290890;28;20025;-70
2023/04/15 14:48:56;;;;;;;1.20;0.45;;;13.00;61.60;;;;;;6291288;28;20032;-70
2023/04/15 14:51:58;;;;;;;1.60;0.43;;;13.10;61.60;;;;;;6291334;28;20024;-69
2023/04/15 14:54:58;;;;;;;6.43;0.70;;;13.10;61.60;;;;;;6289437;28;20086;-69
2023/04/15 14:58:01;;;;;;;0.10;0.10;;;13.10;61.70;;;;;;6288921;28;20035;-70
2023/04/15 15:01:03;;;;;;;0.40;0.30;;;13.00;61.70;;;;;;6289112;28;20040;-70
2023/04/15 15:04:04;;;;;;;0.57;0.40;;;13.10;61.90;;;;;;6291028;28;20027;-69
2023/04/15 15:07:05;;;;;;;0.47;0.40;;;13.20;61.80;;;;;;6290196;28;20017;-67
2023/04/15 15:10:06;;;;;;;0.73;0.50;;;13.40;61.40;;;;;;6290326;28;20514;-69
2023/04/15 15:13:08;;;;;;;1.23;0.80;;;13.50;61.10;;;;;;6293453;28;20035;-73
2023/04/15 15:16:09;;;;;;;0.40;0.40;;;13.50;60.90;;;;;;6295621;28;20377;-69
2023/04/15 15:19:10;;;;;;;0.45;0.45;;;13.50;61.10;;;;;;6276617;28;20028;-70
2023/04/15 15:22:11;;;;;;;0.65;0.47;;;13.40;61.20;;;;;;6294342;28;20116;-72
2023/04/15 15:25:12;;;;;;;1.85;0.45;;;13.40;61.70;;;;;;6295209;28;20037;-68
2023/04/15 15:28:13;;;;;;;0.15;0.15;;;13.40;61.70;;;;;;6295034;28;20028;-68
2023/04/15 15:31:14;;;;;;;1.00;0.40;;;13.50;61.60;;;;;;6277067;28;20125;-69
2023/04/15 15:34:15;;;;;;;0.32;0.28;;;13.50;61.50;;;;;;6293751;28;20056;-69
2023/04/15 15:37:17;;;;;;;0.40;0.40;;;13.50;61.00;;;;;;6293156;28;20131;-69
2023/04/15 15:40:18;;;;;;;7.13;0.80;;;13.40;61.10;;;;;;6295045;28;20025;-69
2023/04/15 15:43:19;;;;;;;1.25;0.80;;;13.30;61.30;;;;;;6293326;28;20686;-68
2023/04/15 15:46:20;;;;;;;0.73;0.40;;;13.20;61.40;;;;;;6271814;28;20041;-67
2023/04/15 15:49:21;;;;;;;0.73;0.35;;;13.10;62.60;;;;;;6279744;28;20127;-70